Utica, Ohio
Current Conditions -  °F | °C
As of 12:15 PM on Friday 28 Nov 2014 (Local Time) from K4I3 Reporting Station
Broken Clouds Broken Clouds  
Wind Chill: 17°   Ceiling: 2600
Heat Index: 27°   Visibility: 10mi
Dew Point: 18°   Wind: 9mph
Humidity: 69%   Direction: 230°SW
Pressure: 30.28"   Gusts: NA
Location:  40.23°N, 82.45°W
Report Text: K4I3 281715Z AUTO 23008KT 10SM BKN026 BKN085 M03/M08 A3028 RMK AO2
Loading
Personal Weather Stations






























Interactive Weather Map New forecast layout! Learn more

10-Day Weather Forecast

Advertisements
Track Severe Weather on mobile